sensor_id;sensor_type;location;lat;lon;timestamp;P1;durP1;ratioP1;P2;durP2;ratioP2
12451;SDS011;6291;48.924;12.204;2022-12-16T00:03:16;69.72;;;38.55;;
12451;SDS011;6291;48.924;12.204;2022-12-16T00:08:19;62.38;;;36.95;;
12451;SDS011;6291;48.924;12.204;2022-12-16T00:13:23;74.25;;;39.65;;
12451;SDS011;6291;48.924;12.204;2022-12-16T00:18:27;72.78;;;41.75;;
12451;SDS011;6291;48.924;12.204;2022-12-16T00:23:32;69.03;;;39.13;;
12451;SDS011;6291;48.924;12.204;2022-12-16T00:28:36;72.35;;;40.03;;
12451;SDS011;6291;48.924;12.204;2022-12-16T00:33:42;68.05;;;38.65;;
12451;SDS011;6291;48.924;12.204;2022-12-16T00:38:46;71.68;;;40.25;;
12451;SDS011;6291;48.924;12.204;2022-12-16T00:43:49;64.13;;;38.38;;
12451;SDS011;6291;48.924;12.204;2022-12-16T00:48:54;74.27;;;40.87;;
12451;SDS011;6291;48.924;12.204;2022-12-16T00:53:57;69.13;;;39.35;;
12451;SDS011;6291;48.924;12.204;2022-12-16T00:59:00;66.40;;;38.87;;
12451;SDS011;6291;48.924;12.204;2022-12-16T01:04:05;68.43;;;39.55;;
12451;SDS011;6291;48.924;12.204;2022-12-16T01:09:08;66.17;;;37.80;;
12451;SDS011;6291;48.924;12.204;2022-12-16T01:14:12;62.28;;;36.60;;
12451;SDS011;6291;48.924;12.204;2022-12-16T01:19:17;68.00;;;39.22;;
12451;SDS011;6291;48.924;12.204;2022-12-16T01:24:20;66.90;;;38.60;;
12451;SDS011;6291;48.924;12.204;2022-12-16T01:29:23;64.78;;;38.08;;
12451;SDS011;6291;48.924;12.204;2022-12-16T01:34:28;67.33;;;37.10;;
12451;SDS011;6291;48.924;12.204;2022-12-16T01:39:31;54.90;;;33.22;;
12451;SDS011;6291;48.924;12.204;2022-12-16T01:44:35;53.83;;;33.88;;
12451;SDS011;6291;48.924;12.204;2022-12-16T01:49:41;57.13;;;34.03;;
12451;SDS011;6291;48.924;12.204;2022-12-16T01:54:47;54.30;;;33.00;;
12451;SDS011;6291;48.924;12.204;2022-12-16T01:59:55;59.83;;;34.97;;
12451;SDS011;6291;48.924;12.204;2022-12-16T02:05:00;53.50;;;32.00;;
12451;SDS011;6291;48.924;12.204;2022-12-16T02:10:23;54.35;;;33.33;;
12451;SDS011;6291;48.924;12.204;2022-12-16T02:15:33;59.30;;;35.03;;
12451;SDS011;6291;48.924;12.204;2022-12-16T02:20:53;51.67;;;31.90;;
12451;SDS011;6291;48.924;12.204;2022-12-16T02:26:21;50.38;;;30.85;;
12451;SDS011;6291;48.924;12.204;2022-12-16T02:31:47;52.13;;;31.88;;
12451;SDS011;6291;48.924;12.204;2022-12-16T02:37:03;53.47;;;31.95;;
12451;SDS011;6291;48.924;12.204;2022-12-16T02:42:18;53.17;;;32.20;;
12451;SDS011;6291;48.924;12.204;2022-12-16T02:47:29;54.10;;;32.65;;
12451;SDS011;6291;48.924;12.204;2022-12-16T02:52:33;57.30;;;34.88;;
12451;SDS011;6291;48.924;12.204;2022-12-16T02:57:40;58.05;;;34.63;;
12451;SDS011;6291;48.924;12.204;2022-12-16T03:02:55;60.08;;;34.67;;
12451;SDS011;6291;48.924;12.204;2022-12-16T03:08:03;56.37;;;34.23;;
12451;SDS011;6291;48.924;12.204;2022-12-16T03:13:09;56.53;;;34.33;;
12451;SDS011;6291;48.924;12.204;2022-12-16T03:18:16;56.15;;;34.08;;
12451;SDS011;6291;48.924;12.204;2022-12-16T03:23:23;56.55;;;32.97;;
12451;SDS011;6291;48.924;12.204;2022-12-16T03:28:32;58.23;;;34.03;;
12451;SDS011;6291;48.924;12.204;2022-12-16T03:33:44;55.42;;;34.03;;
12451;SDS011;6291;48.924;12.204;2022-12-16T03:38:51;56.10;;;33.15;;
12451;SDS011;6291;48.924;12.204;2022-12-16T03:43:57;53.90;;;32.75;;
12451;SDS011;6291;48.924;12.204;2022-12-16T03:49:01;57.88;;;34.75;;
12451;SDS011;6291;48.924;12.204;2022-12-16T03:54:05;62.05;;;36.92;;
12451;SDS011;6291;48.924;12.204;2022-12-16T03:59:08;63.75;;;35.80;;
12451;SDS011;6291;48.924;12.204;2022-12-16T04:04:13;62.00;;;35.13;;
12451;SDS011;6291;48.924;12.204;2022-12-16T04:09:17;58.28;;;34.22;;
12451;SDS011;6291;48.924;12.204;2022-12-16T04:14:21;63.53;;;35.47;;
12451;SDS011;6291;48.924;12.204;2022-12-16T04:19:43;66.17;;;35.70;;
12451;SDS011;6291;48.924;12.204;2022-12-16T04:25:06;64.15;;;36.13;;
12451;SDS011;6291;48.924;12.204;2022-12-16T04:30:12;65.93;;;36.93;;
12451;SDS011;6291;48.924;12.204;2022-12-16T04:35:23;58.15;;;35.35;;
12451;SDS011;6291;48.924;12.204;2022-12-16T04:40:44;64.40;;;36.63;;
12451;SDS011;6291;48.924;12.204;2022-12-16T04:46:05;56.97;;;34.20;;
12451;SDS011;6291;48.924;12.204;2022-12-16T04:51:26;58.60;;;34.90;;
12451;SDS011;6291;48.924;12.204;2022-12-16T04:56:47;61.38;;;35.25;;
12451;SDS011;6291;48.924;12.204;2022-12-16T05:02:08;64.97;;;35.78;;
12451;SDS011;6291;48.924;12.204;2022-12-16T05:07:30;66.95;;;37.20;;
12451;SDS011;6291;48.924;12.204;2022-12-16T05:12:51;63.83;;;36.45;;
12451;SDS011;6291;48.924;12.204;2022-12-16T05:18:13;66.10;;;37.28;;
12451;SDS011;6291;48.924;12.204;2022-12-16T05:23:35;67.20;;;37.33;;
12451;SDS011;6291;48.924;12.204;2022-12-16T05:28:57;61.25;;;35.55;;
12451;SDS011;6291;48.924;12.204;2022-12-16T05:34:32;64.80;;;37.50;;
12451;SDS011;6291;48.924;12.204;2022-12-16T05:39:54;67.03;;;38.13;;
12451;SDS011;6291;48.924;12.204;2022-12-16T05:45:15;60.08;;;35.72;;
12451;SDS011;6291;48.924;12.204;2022-12-16T05:50:36;65.25;;;36.65;;
12451;SDS011;6291;48.924;12.204;2022-12-16T05:56:01;64.75;;;37.30;;
12451;SDS011;6291;48.924;12.204;2022-12-16T06:01:21;63.17;;;35.88;;
12451;SDS011;6291;48.924;12.204;2022-12-16T06:06:42;55.58;;;33.67;;
12451;SDS011;6291;48.924;12.204;2022-12-16T06:12:05;61.33;;;34.97;;
12451;SDS011;6291;48.924;12.204;2022-12-16T06:17:26;60.75;;;34.70;;
12451;SDS011;6291;48.924;12.204;2022-12-16T06:22:49;56.23;;;31.80;;
12451;SDS011;6291;48.924;12.204;2022-12-16T06:28:11;58.33;;;33.20;;
12451;SDS011;6291;48.924;12.204;2022-12-16T06:33:32;59.75;;;34.53;;
12451;SDS011;6291;48.924;12.204;2022-12-16T06:38:55;54.55;;;31.88;;
12451;SDS011;6291;48.924;12.204;2022-12-16T06:44:17;57.88;;;33.45;;
12451;SDS011;6291;48.924;12.204;2022-12-16T06:49:38;56.45;;;32.95;;
12451;SDS011;6291;48.924;12.204;2022-12-16T06:54:58;62.15;;;34.88;;
12451;SDS011;6291;48.924;12.204;2022-12-16T07:00:21;67.75;;;35.90;;
12451;SDS011;6291;48.924;12.204;2022-12-16T07:05:42;68.82;;;37.58;;
12451;SDS011;6291;48.924;12.204;2022-12-16T07:11:03;69.40;;;36.20;;
12451;SDS011;6291;48.924;12.204;2022-12-16T07:16:24;62.00;;;33.05;;
12451;SDS011;6291;48.924;12.204;2022-12-16T07:21:45;64.03;;;34.08;;
12451;SDS011;6291;48.924;12.204;2022-12-16T07:27:05;58.97;;;33.47;;
12451;SDS011;6291;48.924;12.204;2022-12-16T07:32:27;57.42;;;33.10;;
12451;SDS011;6291;48.924;12.204;2022-12-16T07:38:03;57.40;;;31.80;;
12451;SDS011;6291;48.924;12.204;2022-12-16T07:43:23;52.28;;;31.73;;
12451;SDS011;6291;48.924;12.204;2022-12-16T07:48:45;50.95;;;30.50;;
12451;SDS011;6291;48.924;12.204;2022-12-16T07:54:06;52.13;;;30.05;;
12451;SDS011;6291;48.924;12.204;2022-12-16T07:59:27;50.00;;;29.48;;
12451;SDS011;6291;48.924;12.204;2022-12-16T08:04:49;50.30;;;29.30;;
12451;SDS011;6291;48.924;12.204;2022-12-16T08:10:10;48.95;;;28.77;;
12451;SDS011;6291;48.924;12.204;2022-12-16T08:15:31;50.30;;;29.20;;
12451;SDS011;6291;48.924;12.204;2022-12-16T08:20:54;49.72;;;29.58;;
12451;SDS011;6291;48.924;12.204;2022-12-16T08:26:15;49.03;;;28.15;;
12451;SDS011;6291;48.924;12.204;2022-12-16T08:31:37;48.63;;;28.73;;
12451;SDS011;6291;48.924;12.204;2022-12-16T08:36:59;48.75;;;30.17;;
12451;SDS011;6291;48.924;12.204;2022-12-16T08:42:34;50.05;;;29.52;;
12451;SDS011;6291;48.924;12.204;2022-12-16T08:47:56;48.38;;;28.65;;
12451;SDS011;6291;48.924;12.204;2022-12-16T08:53:18;49.72;;;26.90;;
12451;SDS011;6291;48.924;12.204;2022-12-16T08:58:45;43.65;;;26.75;;
12451;SDS011;6291;48.924;12.204;2022-12-16T09:04:06;43.97;;;26.97;;
12451;SDS011;6291;48.924;12.204;2022-12-16T09:09:28;46.03;;;27.48;;
12451;SDS011;6291;48.924;12.204;2022-12-16T09:14:49;43.28;;;26.42;;
12451;SDS011;6291;48.924;12.204;2022-12-16T09:20:10;43.17;;;26.95;;
12451;SDS011;6291;48.924;12.204;2022-12-16T09:25:32;42.40;;;26.73;;
12451;SDS011;6291;48.924;12.204;2022-12-16T09:30:55;41.28;;;24.23;;
12451;SDS011;6291;48.924;12.204;2022-12-16T09:36:16;48.17;;;29.20;;
12451;SDS011;6291;48.924;12.204;2022-12-16T09:41:41;40.35;;;25.10;;
12451;SDS011;6291;48.924;12.204;2022-12-16T09:47:04;41.50;;;25.10;;
12451;SDS011;6291;48.924;12.204;2022-12-16T09:52:32;40.58;;;24.33;;
12451;SDS011;6291;48.924;12.204;2022-12-16T09:58:01;38.40;;;23.40;;
12451;SDS011;6291;48.924;12.204;2022-12-16T10:03:23;39.90;;;24.80;;
12451;SDS011;6291;48.924;12.204;2022-12-16T10:08:48;41.25;;;24.58;;
12451;SDS011;6291;48.924;12.204;2022-12-16T10:14:17;38.10;;;23.40;;
12451;SDS011;6291;48.924;12.204;2022-12-16T10:19:46;38.08;;;23.40;;
12451;SDS011;6291;48.924;12.204;2022-12-16T10:25:15;39.28;;;24.55;;
12451;SDS011;6291;48.924;12.204;2022-12-16T10:30:40;35.05;;;22.30;;
12451;SDS011;6291;48.924;12.204;2022-12-16T10:36:01;38.95;;;24.52;;
12451;SDS011;6291;48.924;12.204;2022-12-16T10:41:23;37.75;;;24.10;;
12451;SDS011;6291;48.924;12.204;2022-12-16T10:46:47;34.78;;;23.13;;
12451;SDS011;6291;48.924;12.204;2022-12-16T10:52:08;36.78;;;22.67;;
12451;SDS011;6291;48.924;12.204;2022-12-16T10:57:33;36.10;;;23.02;;
12451;SDS011;6291;48.924;12.204;2022-12-16T11:08:42;37.50;;;24.77;;
12451;SDS011;6291;48.924;12.204;2022-12-16T11:14:16;37.38;;;23.90;;
12451;SDS011;6291;48.924;12.204;2022-12-16T11:19:42;39.67;;;25.47;;
12451;SDS011;6291;48.924;12.204;2022-12-16T11:25:03;39.15;;;25.15;;
12451;SDS011;6291;48.924;12.204;2022-12-16T11:30:25;37.72;;;24.15;;
12451;SDS011;6291;48.924;12.204;2022-12-16T11:35:49;38.53;;;24.05;;
12451;SDS011;6291;48.924;12.204;2022-12-16T11:41:20;41.90;;;26.17;;
12451;SDS011;6291;48.924;12.204;2022-12-16T11:46:44;39.28;;;24.83;;
12451;SDS011;6291;48.924;12.204;2022-12-16T11:52:08;39.22;;;25.40;;
12451;SDS011;6291;48.924;12.204;2022-12-16T11:57:41;35.50;;;24.30;;
12451;SDS011;6291;48.924;12.204;2022-12-16T12:03:08;35.90;;;24.30;;
12451;SDS011;6291;48.924;12.204;2022-12-16T12:08:36;37.20;;;23.45;;
12451;SDS011;6291;48.924;12.204;2022-12-16T12:14:03;35.80;;;22.33;;
12451;SDS011;6291;48.924;12.204;2022-12-16T12:19:34;34.40;;;21.88;;
12451;SDS011;6291;48.924;12.204;2022-12-16T12:25:06;30.98;;;20.55;;
12451;SDS011;6291;48.924;12.204;2022-12-16T12:30:35;29.90;;;20.52;;
12451;SDS011;6291;48.924;12.204;2022-12-16T12:36:03;32.13;;;20.40;;
12451;SDS011;6291;48.924;12.204;2022-12-16T12:41:45;31.48;;;19.48;;
12451;SDS011;6291;48.924;12.204;2022-12-16T12:47:24;32.93;;;20.17;;
12451;SDS011;6291;48.924;12.204;2022-12-16T12:53:06;33.65;;;21.95;;
12451;SDS011;6291;48.924;12.204;2022-12-16T12:58:38;29.13;;;20.10;;
12451;SDS011;6291;48.924;12.204;2022-12-16T13:04:03;29.87;;;19.63;;
12451;SDS011;6291;48.924;12.204;2022-12-16T13:09:31;30.15;;;18.92;;
12451;SDS011;6291;48.924;12.204;2022-12-16T13:14:56;28.30;;;18.83;;
12451;SDS011;6291;48.924;12.204;2022-12-16T13:26:03;26.73;;;17.93;;
12451;SDS011;6291;48.924;12.204;2022-12-16T13:31:27;25.40;;;16.98;;
12451;SDS011;6291;48.924;12.204;2022-12-16T13:36:57;24.75;;;15.85;;
12451;SDS011;6291;48.924;12.204;2022-12-16T13:42:33;29.57;;;19.10;;
12451;SDS011;6291;48.924;12.204;2022-12-16T13:53:48;27.08;;;15.88;;
12451;SDS011;6291;48.924;12.204;2022-12-16T13:59:13;23.10;;;15.80;;
12451;SDS011;6291;48.924;12.204;2022-12-16T14:04:38;23.80;;;15.60;;
12451;SDS011;6291;48.924;12.204;2022-12-16T14:10:03;21.17;;;13.83;;
12451;SDS011;6291;48.924;12.204;2022-12-16T14:15:25;19.77;;;13.47;;
12451;SDS011;6291;48.924;12.204;2022-12-16T14:20:53;21.42;;;14.25;;
12451;SDS011;6291;48.924;12.204;2022-12-16T14:26:17;22.60;;;14.60;;
12451;SDS011;6291;48.924;12.204;2022-12-16T14:31:40;22.08;;;14.77;;
12451;SDS011;6291;48.924;12.204;2022-12-16T14:37:10;23.70;;;16.40;;
12451;SDS011;6291;48.924;12.204;2022-12-16T14:42:32;23.33;;;16.30;;
12451;SDS011;6291;48.924;12.204;2022-12-16T14:47:52;19.27;;;13.03;;
12451;SDS011;6291;48.924;12.204;2022-12-16T14:53:16;17.30;;;11.73;;
12451;SDS011;6291;48.924;12.204;2022-12-16T14:58:39;18.23;;;13.10;;
12451;SDS011;6291;48.924;12.204;2022-12-16T15:03:59;15.38;;;11.15;;
12451;SDS011;6291;48.924;12.204;2022-12-16T15:09:25;19.95;;;12.73;;
12451;SDS011;6291;48.924;12.204;2022-12-16T15:14:48;23.42;;;15.38;;
12451;SDS011;6291;48.924;12.204;2022-12-16T15:20:14;21.67;;;14.27;;
12451;SDS011;6291;48.924;12.204;2022-12-16T15:25:39;21.33;;;13.60;;
12451;SDS011;6291;48.924;12.204;2022-12-16T15:31:11;20.27;;;13.68;;
12451;SDS011;6291;48.924;12.204;2022-12-16T15:36:34;23.35;;;14.07;;
12451;SDS011;6291;48.924;12.204;2022-12-16T15:41:57;25.73;;;15.88;;
12451;SDS011;6291;48.924;12.204;2022-12-16T15:47:19;23.40;;;14.82;;
12451;SDS011;6291;48.924;12.204;2022-12-16T15:52:45;22.38;;;14.95;;
12451;SDS011;6291;48.924;12.204;2022-12-16T15:58:12;24.67;;;15.45;;
12451;SDS011;6291;48.924;12.204;2022-12-16T16:03:34;22.67;;;15.43;;
12451;SDS011;6291;48.924;12.204;2022-12-16T16:08:57;25.23;;;16.10;;
12451;SDS011;6291;48.924;12.204;2022-12-16T16:14:15;32.22;;;18.17;;
12451;SDS011;6291;48.924;12.204;2022-12-16T16:19:36;33.40;;;19.73;;
12451;SDS011;6291;48.924;12.204;2022-12-16T16:25:04;25.30;;;16.43;;
12451;SDS011;6291;48.924;12.204;2022-12-16T16:30:27;25.97;;;16.87;;
12451;SDS011;6291;48.924;12.204;2022-12-16T16:35:47;23.80;;;15.30;;
12451;SDS011;6291;48.924;12.204;2022-12-16T16:41:09;31.33;;;18.63;;
12451;SDS011;6291;48.924;12.204;2022-12-16T16:46:35;27.00;;;16.87;;
12451;SDS011;6291;48.924;12.204;2022-12-16T16:51:57;23.47;;;15.00;;
12451;SDS011;6291;48.924;12.204;2022-12-16T16:57:18;21.73;;;13.93;;
12451;SDS011;6291;48.924;12.204;2022-12-16T17:02:40;20.27;;;13.73;;
12451;SDS011;6291;48.924;12.204;2022-12-16T17:08:03;18.30;;;11.75;;
12451;SDS011;6291;48.924;12.204;2022-12-16T17:13:24;22.25;;;14.00;;
12451;SDS011;6291;48.924;12.204;2022-12-16T17:18:46;20.83;;;13.55;;
12451;SDS011;6291;48.924;12.204;2022-12-16T17:24:07;19.85;;;13.55;;
12451;SDS011;6291;48.924;12.204;2022-12-16T17:29:29;22.35;;;14.82;;
12451;SDS011;6291;48.924;12.204;2022-12-16T17:34:51;18.33;;;13.40;;
12451;SDS011;6291;48.924;12.204;2022-12-16T17:40:23;20.95;;;14.02;;
12451;SDS011;6291;48.924;12.204;2022-12-16T17:45:53;23.77;;;15.13;;
12451;SDS011;6291;48.924;12.204;2022-12-16T17:51:25;20.87;;;14.30;;
12451;SDS011;6291;48.924;12.204;2022-12-16T17:56:46;19.52;;;12.85;;
12451;SDS011;6291;48.924;12.204;2022-12-16T18:02:21;21.80;;;14.47;;
12451;SDS011;6291;48.924;12.204;2022-12-16T18:07:43;20.10;;;14.20;;
12451;SDS011;6291;48.924;12.204;2022-12-16T18:13:04;19.70;;;13.88;;
12451;SDS011;6291;48.924;12.204;2022-12-16T18:18:25;23.45;;;16.50;;
12451;SDS011;6291;48.924;12.204;2022-12-16T18:23:48;26.05;;;17.00;;
12451;SDS011;6291;48.924;12.204;2022-12-16T18:29:08;27.25;;;17.48;;
12451;SDS011;6291;48.924;12.204;2022-12-16T18:34:29;29.15;;;18.75;;
12451;SDS011;6291;48.924;12.204;2022-12-16T18:39:59;29.53;;;18.40;;
12451;SDS011;6291;48.924;12.204;2022-12-16T18:45:20;30.30;;;19.50;;
12451;SDS011;6291;48.924;12.204;2022-12-16T18:50:41;31.83;;;19.30;;
12451;SDS011;6291;48.924;12.204;2022-12-16T18:56:05;28.17;;;18.97;;
12451;SDS011;6291;48.924;12.204;2022-12-16T19:01:27;29.85;;;19.83;;
12451;SDS011;6291;48.924;12.204;2022-12-16T19:06:47;28.52;;;18.40;;
12451;SDS011;6291;48.924;12.204;2022-12-16T19:12:09;31.75;;;20.85;;
12451;SDS011;6291;48.924;12.204;2022-12-16T19:17:30;31.90;;;21.58;;
12451;SDS011;6291;48.924;12.204;2022-12-16T19:22:51;31.50;;;20.65;;
12451;SDS011;6291;48.924;12.204;2022-12-16T19:28:14;31.60;;;20.80;;
12451;SDS011;6291;48.924;12.204;2022-12-16T19:33:35;31.93;;;20.93;;
12451;SDS011;6291;48.924;12.204;2022-12-16T19:38:56;31.50;;;21.23;;
12451;SDS011;6291;48.924;12.204;2022-12-16T19:44:18;31.10;;;20.93;;
12451;SDS011;6291;48.924;12.204;2022-12-16T19:49:39;32.23;;;21.63;;
12451;SDS011;6291;48.924;12.204;2022-12-16T19:55:00;36.30;;;22.98;;
12451;SDS011;6291;48.924;12.204;2022-12-16T20:00:22;33.25;;;21.77;;
12451;SDS011;6291;48.924;12.204;2022-12-16T20:05:44;31.35;;;20.35;;
12451;SDS011;6291;48.924;12.204;2022-12-16T20:11:05;35.33;;;22.70;;
12451;SDS011;6291;48.924;12.204;2022-12-16T20:16:27;36.28;;;22.45;;
12451;SDS011;6291;48.924;12.204;2022-12-16T20:21:57;36.55;;;23.52;;
12451;SDS011;6291;48.924;12.204;2022-12-16T20:27:17;34.60;;;21.77;;
12451;SDS011;6291;48.924;12.204;2022-12-16T20:32:39;38.03;;;23.05;;
12451;SDS011;6291;48.924;12.204;2022-12-16T20:38:00;35.47;;;22.58;;
12451;SDS011;6291;48.924;12.204;2022-12-16T20:43:20;37.38;;;22.45;;
12451;SDS011;6291;48.924;12.204;2022-12-16T20:48:44;32.40;;;20.97;;
12451;SDS011;6291;48.924;12.204;2022-12-16T20:54:07;33.70;;;21.90;;
12451;SDS011;6291;48.924;12.204;2022-12-16T20:59:29;33.95;;;22.23;;
12451;SDS011;6291;48.924;12.204;2022-12-16T21:04:51;33.40;;;22.00;;
12451;SDS011;6291;48.924;12.204;2022-12-16T21:10:12;34.33;;;21.87;;
12451;SDS011;6291;48.924;12.204;2022-12-16T21:15:33;34.03;;;22.23;;
12451;SDS011;6291;48.924;12.204;2022-12-16T21:20:59;33.70;;;22.20;;
12451;SDS011;6291;48.924;12.204;2022-12-16T21:26:20;31.75;;;20.77;;
12451;SDS011;6291;48.924;12.204;2022-12-16T21:31:41;35.03;;;23.23;;
12451;SDS011;6291;48.924;12.204;2022-12-16T21:37:03;34.45;;;22.25;;
12451;SDS011;6291;48.924;12.204;2022-12-16T21:42:24;34.17;;;21.90;;
12451;SDS011;6291;48.924;12.204;2022-12-16T21:47:45;34.47;;;22.35;;
12451;SDS011;6291;48.924;12.204;2022-12-16T21:53:07;37.03;;;24.60;;
12451;SDS011;6291;48.924;12.204;2022-12-16T21:58:28;37.50;;;24.05;;
12451;SDS011;6291;48.924;12.204;2022-12-16T22:03:49;37.53;;;22.35;;
12451;SDS011;6291;48.924;12.204;2022-12-16T22:09:12;35.10;;;22.63;;
12451;SDS011;6291;48.924;12.204;2022-12-16T22:14:33;37.53;;;23.33;;
12451;SDS011;6291;48.924;12.204;2022-12-16T22:19:56;38.03;;;24.58;;
12451;SDS011;6291;48.924;12.204;2022-12-16T22:25:18;37.73;;;23.33;;
12451;SDS011;6291;48.924;12.204;2022-12-16T22:30:39;37.00;;;23.33;;
12451;SDS011;6291;48.924;12.204;2022-12-16T22:36:01;36.60;;;23.83;;
12451;SDS011;6291;48.924;12.204;2022-12-16T22:41:24;33.47;;;22.67;;
12451;SDS011;6291;48.924;12.204;2022-12-16T22:46:41;33.58;;;21.73;;
12451;SDS011;6291;48.924;12.204;2022-12-16T22:52:02;36.03;;;23.00;;
12451;SDS011;6291;48.924;12.204;2022-12-16T22:57:26;34.45;;;22.50;;
12451;SDS011;6291;48.924;12.204;2022-12-16T23:02:47;33.63;;;21.37;;
12451;SDS011;6291;48.924;12.204;2022-12-16T23:08:10;35.72;;;22.92;;
12451;SDS011;6291;48.924;12.204;2022-12-16T23:13:33;35.67;;;22.13;;
12451;SDS011;6291;48.924;12.204;2022-12-16T23:18:54;32.75;;;21.80;;
12451;SDS011;6291;48.924;12.204;2022-12-16T23:24:15;37.13;;;23.38;;
12451;SDS011;6291;48.924;12.204;2022-12-16T23:29:37;36.60;;;22.65;;
12451;SDS011;6291;48.924;12.204;2022-12-16T23:34:58;35.50;;;22.67;;
12451;SDS011;6291;48.924;12.204;2022-12-16T23:40:20;39.40;;;23.73;;
12451;SDS011;6291;48.924;12.204;2022-12-16T23:45:42;36.78;;;23.42;;
12451;SDS011;6291;48.924;12.204;2022-12-16T23:51:03;35.22;;;21.83;;
12451;SDS011;6291;48.924;12.204;2022-12-16T23:56:32;34.37;;;22.20;;
